Flight Track Log - Related Links

Times and Time Zones

All times are in EDT time to prevent confusion due to time zone crossing. See the SWA232 flight status page for this flight to view local times or setup timezone preferences in your user account.

Time Position Orientation Groundspeed Altitude Reporting Facility
EDT Latitude Longitude Course Direction KTS MPH feet Rate Location/Type
Thu 06:39:29 AM 42.9500 -71.4167 26° Northeast 170 196 1,100  Level KA90
Thu 06:40:23 AM 43.0000 -71.3833 26° Northeast 230 265 3,100 2,345 Climbing KA90
Thu 06:40:56 AM 43.0250 -71.3836 360° North 287 330 4,500 3,290 Climbing Boston Center
Thu 06:41:56 AM 43.0714 -71.4653 308° West 232 267 8,200 3,100 Climbing Boston Center
Thu 06:42:56 AM 43.0889 -71.5475 286° West 246 283 10,700 2,600 Climbing Boston Center
Thu 06:43:56 AM 43.0942 -71.7094 273° West 336 387 13,400 2,600 Climbing Boston Center
Thu 06:44:56 AM 43.0969 -71.8372 272° West 370 426 15,900 2,350 Climbing Boston Center
Thu 06:45:56 AM 43.1039 -72.0022 273° West 396 456 18,100 2,200 Climbing Boston Center
Thu 06:46:56 AM 43.1086 -72.1444 273° West 408 470 20,300 2,450 Climbing Boston Center
Thu 06:47:56 AM 43.1172 -72.3178 274° West 414 476 23,000 2,400 Climbing Boston Center
Thu 06:48:56 AM 43.1256 -72.4800 274° West 424 488 25,100 1,900 Climbing Boston Center
Thu 06:49:56 AM 43.1214 -72.6450 268° West 424 488 26,800 1,500 Climbing Boston Center
Thu 06:50:56 AM 43.1272 -72.8183 273° West 436 502 28,100 1,250 Climbing Boston Center
Thu 06:51:56 AM 43.1306 -72.9947 272° West 455 524 29,300 1,150 Climbing Boston Center
Thu 06:52:56 AM 43.1358 -73.1600 273° West 470 541 30,400 1,300 Climbing Boston Center
Thu 06:53:56 AM 43.1408 -73.3419 272° West 482 555 31,900 1,700 Climbing Boston Center
Thu 06:54:56 AM 43.1414 -73.5328 270° West 476 548 33,800 1,750 Climbing Boston Center
Thu 06:55:56 AM 43.1436 -73.7119 271° West 471 542 35,400 1,100 Climbing Boston Center
Thu 06:56:56 AM 43.1456 -73.8886 271° West 471 542 36,000 300 Climbing Boston Center
Thu 06:57:56 AM 43.1494 -74.0622 272° West 471 542 36,000  Level Boston Center
Thu 06:58:56 AM 43.1511 -74.2386 271° West 466 536 36,000  Level Boston Center
Thu 06:59:56 AM 43.1544 -74.4125 272° West 461 531 36,000  Level Boston Center
Thu 07:00:56 AM 43.1556 -74.5861 271° West 461 531 36,000  Level Boston Center
Thu 07:01:56 AM 43.1522 -74.7567 269° West 461 531 36,000  Level Boston Center
Thu 07:02:56 AM 43.1008 -74.9197 247° West 461 531 36,000  Level Boston Center
Thu 07:03:56 AM 43.0658 -75.0861 254° West 456 525 36,000  Level Boston Center
Thu 07:04:56 AM 43.0533 -75.2561 264° West 456 525 36,000  Level Boston Center
Thu 07:05:56 AM 43.0386 -75.4258 263° West 456 525 36,000  Level Boston Center
Thu 07:06:56 AM 43.0258 -75.5928 264° West 450 518 36,000  Level Boston Center
Thu 07:07:56 AM 43.0106 -75.7625 263° West 450 518 36,000  Level Boston Center
Thu 07:09:35 AM 42.9858 -76.0417 263° West 437 503 36,000  Level Cleveland Center
Thu 07:10:35 AM 42.9694 -76.2131 263° West 448 516 36,000  Level Cleveland Center
Thu 07:11:35 AM 42.9550 -76.3817 263° West 448 516 36,000  Level Cleveland Center
Thu 07:12:35 AM 42.9381 -76.5531 262° West 453 521 36,000  Level Cleveland Center
Thu 07:13:35 AM 42.9261 -76.6869 263° West 453 521 36,000  Level Cleveland Center
Thu 07:14:35 AM 42.9092 -76.8694 263° West 453 521 36,000  Level Cleveland Center
Thu 07:15:35 AM 42.8914 -77.0378 262° West 448 516 36,000  Level Cleveland Center
Thu 07:16:35 AM 42.8442 -77.1936 248° West 448 516 36,000  Level Cleveland Center
Thu 07:17:35 AM 42.7942 -77.3461 246° West 448 516 36,000  Level Cleveland Center
Thu 07:18:35 AM 42.7461 -77.4928 246° West 442 509 36,000  Level Cleveland Center
Thu 07:19:35 AM 42.6881 -77.6653 245° Southwest 447 514 36,000  Level Cleveland Center
Thu 07:20:35 AM 42.6375 -77.8172 246° West 447 514 36,000  Level Cleveland Center
Thu 07:21:35 AM 42.5850 -77.9717 245° Southwest 447 514 36,000  Level Cleveland Center
Thu 07:22:35 AM 42.5339 -78.1206 245° Southwest 447 514 36,000  Level Cleveland Center
Thu 07:23:35 AM 42.4831 -78.2717 246° West 447 514 36,000  Level Cleveland Center
Thu 07:24:35 AM 42.4317 -78.4256 246° West 447 514 36,000  Level Cleveland Center
Thu 07:25:35 AM 42.3822 -78.5706 245° Southwest 447 514 36,000  Level Cleveland Center
Thu 07:26:35 AM 42.3306 -78.7211 245° Southwest 447 514 36,000  Level Cleveland Center
Thu 07:27:35 AM 42.2786 -78.8714 245° Southwest 447 514 36,000  Level Cleveland Center
Thu 07:28:35 AM 42.2539 -79.0319 258° West 442 509 36,000  Level Cleveland Center
Thu 07:29:35 AM 42.2331 -79.1922 260° West 442 509 36,000  Level Cleveland Center
Thu 07:30:35 AM 42.2119 -79.3581 260° West 442 509 36,000  Level Cleveland Center
Thu 07:31:35 AM 42.1886 -79.5239 259° West 447 514 36,000  Level Cleveland Center
Thu 07:32:35 AM 42.1669 -79.6839 260° West 447 514 36,000  Level Cleveland Center
Thu 07:33:35 AM 42.1431 -79.8494 259° West 447 514 36,000  Level Cleveland Center
Thu 07:34:35 AM 42.1192 -80.0094 259° West 447 514 36,000  Level Cleveland Center
Thu 07:35:35 AM 42.0989 -80.1719 261° West 447 514 36,000  Level Cleveland Center
Thu 07:36:35 AM 42.0744 -80.3342 259° West 447 514 36,000  Level Cleveland Center
Thu 07:37:35 AM 42.0517 -80.4964 259° West 447 514 36,000  Level Cleveland Center
Thu 07:38:35 AM 42.0267 -80.6558 258° West 447 514 36,000  Level Cleveland Center
Thu 07:39:35 AM 42.0036 -80.8150 259° West 447 514 36,000  Level Cleveland Center
Thu 07:40:35 AM 41.9803 -80.9742 259° West 447 514 36,000  Level Cleveland Center
Thu 07:41:35 AM 41.9567 -81.1361 259° West 447 514 36,000  Level Cleveland Center
Thu 07:42:35 AM 41.9328 -81.2978 259° West 447 514 36,000  Level Cleveland Center
Thu 07:43:35 AM 41.9108 -81.4369 258° West 442 509 36,000  Level Cleveland Center
Thu 07:44:35 AM 41.8867 -81.5956 258° West 436 502 36,000  Level Cleveland Center
Thu 07:45:35 AM 41.8622 -81.7514 258° West 431 496 36,000  Level Cleveland Center
Thu 07:46:35 AM 41.8378 -81.9014 258° West 425 489 36,000  Level Cleveland Center
Thu 07:47:35 AM 41.8150 -82.0542 259° West 425 489 36,000  Level Cleveland Center
Thu 07:48:35 AM 41.7881 -82.2011 256° West 420 483 36,000  Level Cleveland Center
Thu 07:49:35 AM 41.7650 -82.3564 259° West 420 483 36,000  Level Cleveland Center
Thu 07:51:35 AM 41.7139 -82.6556 257° West 420 483 36,000  Level Cleveland Center
Thu 07:52:35 AM 41.6883 -82.8075 257° West 420 483 36,000  Level Cleveland Center
Thu 07:53:35 AM 41.6642 -82.9625 258° West 420 483 36,000  Level Cleveland Center
Thu 07:54:35 AM 41.6381 -83.1089 257° West 420 483 36,000  Level Cleveland Center
Thu 07:55:35 AM 41.6139 -83.2606 258° West 420 483 36,000  Level Cleveland Center
Thu 07:56:35 AM 41.5853 -83.4122 256° West 420 483 36,000  Level Cleveland Center
Thu 07:57:35 AM 41.5606 -83.5636 258° West 420 483 36,000 -100 Level Cleveland Center
Thu 07:58:35 AM 41.5356 -83.7125 257° West 420 483 35,800 -600 Descending Cleveland Center
Thu 07:59:35 AM 41.5106 -83.8636 258° West 420 483 34,800 -900 Descending Cleveland Center
Thu 08:00:35 AM 41.4792 -84.0119 254° West 420 483 34,000 -400 Descending Cleveland Center
Thu 08:01:35 AM 41.3986 -84.1239 226° Southwest 408 470 34,000  Level Cleveland Center
Thu 08:02:35 AM 41.3181 -84.2300 225° Southwest 415 478 34,000 -750 Level Cleveland Center
Thu 08:03:35 AM 41.2333 -84.3358 223° Southwest 415 478 32,500 -1,641 Descending Cleveland Center
Thu 08:04:43 AM 41.1867 -84.4981 249° West 429 494 30,500 -1,163 Descending Chicago Center
Thu 08:05:44 AM 41.2247 -84.6547 288° West 443 510 30,000 -244 Descending Chicago Center
Thu 08:06:46 AM 41.2600 -84.8108 287° West 442 509 30,000 -194 Level Chicago Center
Thu 08:07:48 AM 41.2942 -84.9672 286° West 442 509 29,600 -732 Descending Chicago Center
Thu 08:08:49 AM 41.3261 -85.1131 286° West 416 479 28,500 -1,268 Descending Chicago Center
Thu 08:09:51 AM 41.3569 -85.2553 286° West 403 464 27,000 -1,935 Descending Chicago Center
Thu 08:10:53 AM 41.3886 -85.3969 287° West 398 458 24,500 -2,683 Descending Chicago Center
Thu 08:11:54 AM 41.4258 -85.5706 286° West 400 460 21,500 -3,073 Descending Chicago Center
Thu 08:12:56 AM 41.4567 -85.7103 286° West 391 450 18,200 -2,780 Descending Chicago Center
Thu 08:13:57 AM 41.4875 -85.8569 286° West 405 466 15,800 -1,707 Descending Chicago Center
Thu 08:14:59 AM 41.5181 -85.9997 286° West 401 461 14,700 -1,016 Descending Chicago Center
Thu 08:16:01 AM 41.5242 -86.1450 273° West 394 453 13,700 -1,024 Descending Chicago Center
Thu 08:17:02 AM 41.5233 -86.2894 270° West 390 449 12,600 -1,366 Descending Chicago Center
Thu 08:18:04 AM 41.5228 -86.4303 270° West 382 440 10,900 -1,210 Descending Chicago Center
Thu 08:19:06 AM 41.5211 -86.5656 269° West 369 425 10,100 -488 Descending Chicago Center
Thu 08:20:07 AM 41.5192 -86.6886 269° West 335 386 9,900 -98 Descending Chicago Center
Thu 08:21:09 AM 41.4956 -86.8144 256° West 295 339 9,900  Level Chicago Center
Thu 08:22:11 AM 41.4719 -86.9097 252° West 301 346 9,900 -585 Level Chicago Center
Thu 08:23:12 AM 41.4911 -87.0203 283° West 309 356 8,700 -1,073 Descending Chicago Center
Thu 08:24:14 AM 41.5103 -87.1269 284° West 299 344 7,700 -1,102 Descending Chicago Center
Thu 08:24:50 AM 41.5167 -87.2000 277° West 282 325 6,900 -1,133 Descending Chicago TRACON
Thu 08:25:44 AM 41.5167 -87.2833 270° West 274 315 6,000 -474 Descending Chicago TRACON
Thu 08:26:44 AM 41.5167 -87.4000 270° West 270 311 6,000 -63 Level Chicago TRACON
Thu 08:27:20 AM 41.5128 -87.4467 264° West 270 311 5,900 -619 Descending Chicago Center
Thu 08:28:21 AM 41.5119 -87.5283 269° West 241 277 5,000 -927 Descending Chicago Center
Thu 08:29:23 AM 41.5433 -87.5975 301° West 238 274 4,000 -435 Descending Chicago Center
Thu 08:30:25 AM 41.5914 -87.6528 319° Northwest 234 269 4,100  Climbing Chicago Center
Thu 08:31:27 AM 41.6150 -87.7097 299° West 215 247 4,000 -48 Descending Chicago Center
Thu 08:32:29 AM 41.6139 -87.7761 269° West 193 222 4,000  Level Chicago Center
Thu 08:33:31 AM 41.5811 -87.8414 236° Southwest 183 211 4,000  Level Chicago Center
Thu 08:34:33 AM 41.5419 -87.8806 217° Southwest 179 206 4,000  Level Chicago Center
Thu 08:35:35 AM 41.5039 -87.9211 219° Southwest 177 204 4,000 -49 Level Chicago Center
Thu 08:36:36 AM 41.5219 -87.9767 293° West 185 213 3,900 -488 Descending Chicago Center
Thu 08:37:38 AM 41.5544 -88.0289 310° West 185 213 3,000 -435 Descending Chicago Center
Thu 08:38:40 AM 41.5958 -87.9986 29° Northeast 185 213 3,000  Level Chicago Center
Thu 08:39:42 AM 41.6289 -87.9456 50° Northeast 185 213 3,000  Level Chicago Center
Thu 08:40:44 AM 41.6672 -87.9014 41° Northeast 183 211 3,000  Level Chicago Center
Thu 08:41:21 AM 41.7000 -87.8667 38° Northeast 185 213 3,000 -495 Level Chicago TRACON
Thu 08:42:21 AM 41.7333 -87.8333 37° Northeast 155 178 2,200 -750 Descending Chicago TRACON
Thu 08:43:21 AM 41.7500 -87.8000 56° Northeast 125 144 1,500 -700 Descending Chicago TRACON
Thu 08:45:00 AM 41.7833 -87.7500 44° Northeast  Level FlightAware Approximate

Login

Don't have an account? Register now (free) for customized features, flight alerts, and more!